Home   Weather   Spain   Los Llanos de Aridane   Past weeks
Flag for Spain

Past Weather in Los Llanos de Aridane, Canary Islands, Spain — Yesterday and Last 2 Weeks

Currently: 73 °F. Sunny. (Weather station: La Palma / Aeropuerto, Spain). See more current weather

Past Weather in Los Llanos de Aridane — Graph

°F

Los Llanos de Aridane Temperature Yesterday

Maximum temperature yesterday: 81 °F (at 3:30 pm)
Minimum temperature yesterday: 68 °F (at 4:30 am)
Average temperature yesterday: 74 °F

High & Low Weather Summary for the Past Weeks

 TemperatureHumidityPressure
High84 °F (Jun 9, 3:00 pm)94% (Jun 3, 5:43 pm)30.30 "Hg (Jun 3, 5:43 pm)
Low64 °F (May 29, 3:30 am)21% (Jun 9, 12:30 pm)29.98 "Hg (Jun 1, 5:00 pm)
Average70 °F69%30.10 "Hg
* Reported May 28 11:00 am — Jun 12 11:00 am, Los Llanos de Aridane. Weather by CustomWeather, © 2021

Note: Actual official high and low records may vary slightly from our data, if they occured in-between our weather recording intervals... More about our weather records

Los Llanos de Aridane Weather History for the Previous 24 Hours

Scroll right to see more
 ConditionsComfort  
Time TempWeatherWind HumidityBarometerVisibility
11:00 am
Sat, Jun 12
73 °FPassing clouds.14 mph74%30.12 "HgN/A
10:30 am73 °FSunny.14 mph74%30.12 "Hg10 mi
10:00 am72 °FSunny.14 mph78%30.12 "Hg10 mi
9:30 am72 °FSunny.15 mph78%30.12 "Hg10 mi
9:00 am70 °FSunny.15 mph83%30.09 "Hg10 mi
8:30 am70 °FSunny.15 mph83%30.09 "Hg10 mi
8:00 am70 °FSunny.15 mph78%30.09 "Hg10 mi
7:30 am70 °FSunny.15 mph69%30.09 "Hg10 mi
7:00 am72 °FPassing clouds.13 mph53%30.09 "HgN/A
6:30 am72 °FClear.12 mph47%30.09 "Hg10 mi
6:00 am72 °FClear.14 mph50%30.09 "Hg10 mi
5:30 am77 °FPassing clouds.8 mph28%30.07 "HgN/A
5:00 am75 °FPassing clouds.9 mph31%30.07 "HgN/A
4:30 am77 °FPassing clouds.12 mph30%30.09 "HgN/A
4:00 am73 °FClear.10 mph33%30.09 "Hg10 mi
3:30 am75 °FPassing clouds.12 mph31%30.09 "HgN/A
3:00 am73 °FClear.9 mph31%30.09 "Hg10 mi
2:30 am75 °FPassing clouds.9 mph29%30.09 "HgN/A
2:00 am73 °FClear.10 mph38%30.12 "Hg10 mi
1:30 am72 °FClear.13 mph57%30.12 "Hg10 mi
1:00 am73 °FClear.12 mph50%30.12 "Hg10 mi
12:30 am73 °FClear.9 mph38%30.12 "Hg10 mi
12:00 am75 °FClear.12 mph34%30.09 "Hg10 mi
11:30 pm
Fri, Jun 11
73 °FClear.12 mph41%30.09 "Hg10 mi
11:00 pm75 °FClear.10 mph41%30.09 "Hg10 mi
10:30 pm75 °FClear.14 mph44%30.07 "Hg10 mi
10:00 pm77 °FPassing clouds.10 mph32%30.07 "HgN/A
9:30 pm77 °FClear.10 mph36%30.07 "Hg10 mi
9:00 pm77 °FPassing clouds.12 mph36%30.07 "HgN/A
8:30 pm79 °FSunny.14 mph37%30.07 "Hg10 mi
8:00 pm79 °FPassing clouds.13 mph37%30.04 "HgN/A
7:30 pm79 °FSunny.14 mph39%30.04 "Hg10 mi
7:00 pm79 °FPassing clouds.14 mph42%30.04 "HgN/A
6:30 pm81 °FPassing clouds.14 mph42%30.04 "HgN/A
6:00 pm79 °FPassing clouds.13 mph45%30.04 "HgN/A
5:30 pm79 °FPassing clouds.15 mph45%30.04 "HgN/A
5:00 pm79 °FPassing clouds.14 mph51%30.04 "HgN/A
4:30 pm79 °FPassing clouds.15 mph51%30.07 "HgN/A
4:00 pm81 °FSunny.13 mph39%30.07 "Hg10 mi
3:30 pm81 °FPassing clouds.14 mph48%30.07 "HgN/A
3:00 pm77 °FPassing clouds.15 mph61%30.07 "HgN/A
2:30 pm75 °FSunny.15 mph74%30.07 "Hg10 mi
2:00 pm75 °FPassing clouds.15 mph74%30.07 "HgN/A
1:30 pm75 °FSunny.16 mph78%30.07 "Hg10 mi
1:00 pm75 °FSunny.17 mph78%30.07 "Hg10 mi
12:30 pm75 °FSunny.16 mph78%30.07 "Hg10 mi
12:00 pm73 °FSunny.16 mph83%30.07 "Hg10 mi
Weather by CustomWeather, © 2021

See weather overview